2027 UTC 24 October 2014 found at http://aviationweather.gov/adds/metars/
 
METAR text: KMNH 242012Z AUTO 13004KT 10SM CLR 24/M08 A3025 RMK AO2
Conditions at: KMNH (MONUMENT/ELBERT , CO, US) observed 2012 UTC 24 October 2014
Temperature: 24.0°C (75°F)
Dewpoint: -8.0°C (18°F) [RH = 11%]
Pressure (altimeter): 30.25 inches Hg (1024.5 mb)
Winds: from the SE (130 degrees) at 5 MPH (4 knots; 2.1 m/s)
Visibility: 10 or more miles (16+ km)
Ceiling: at least 12,000 feet AGL
Clouds: sky clear below 12,000 feet AGL
Weather: automated observation with no human augmentation;
there may or may not be significant weather present at this time

METAR text: KMNH 241952Z AUTO 00000KT 10SM CLR 23/M09 A3026 RMK AO2
Conditions at: KMNH (MONUMENT/ELBERT , CO, US) observed 1952 UTC 24 October 2014
Temperature: 23.0°C (73°F)
Dewpoint: -9.0°C (16°F) [RH = 11%]
Pressure (altimeter): 30.26 inches Hg (1024.8 mb)
Winds: calm
Visibility: 10 or more miles (16+ km)
Ceiling: at least 12,000 feet AGL
Clouds: sky clear below 12,000 feet AGL
Weather: automated observation with no human augmentation;
there may or may not be significant weather present at this time

METAR text: KMNH 241932Z AUTO 00000KT 10SM CLR 23/M10 A3026 RMK AO2
Conditions at: KMNH (MONUMENT/ELBERT , CO, US) observed 1932 UTC 24 October 2014
Temperature: 23.0°C (73°F)
Dewpoint: -10.0°C (14°F) [RH = 10%]
Pressure (altimeter): 30.26 inches Hg (1024.8 mb)
Winds: calm
Visibility: 10 or more miles (16+ km)
Ceiling: at least 12,000 feet AGL
Clouds: sky clear below 12,000 feet AGL
Weather: automated observation with no human augmentation;
there may or may not be significant weather present at this time

METAR text: KMNH 241912Z AUTO 00000KT 10SM CLR 23/M09 A3027 RMK AO2
Conditions at: KMNH (MONUMENT/ELBERT , CO, US) observed 1912 UTC 24 October 2014
Temperature: 23.0°C (73°F)
Dewpoint: -9.0°C (16°F) [RH = 11%]
Pressure (altimeter): 30.27 inches Hg (1025.1 mb)
Winds: calm
Visibility: 10 or more miles (16+ km)
Ceiling: at least 12,000 feet AGL
Clouds: sky clear below 12,000 feet AGL
Weather: automated observation with no human augmentation;
there may or may not be significant weather present at this time

METAR text: KMNH 241852Z AUTO 19005KT 10SM CLR 23/M08 A3028 RMK AO2
Conditions at: KMNH (MONUMENT/ELBERT , CO, US) observed 1852 UTC 24 October 2014
Temperature: 23.0°C (73°F)
Dewpoint: -8.0°C (18°F) [RH = 12%]
Pressure (altimeter): 30.28 inches Hg (1025.5 mb)
Winds: from the S (190 degrees) at 6 MPH (5 knots; 2.6 m/s)
Visibility: 10 or more miles (16+ km)
Ceiling: at least 12,000 feet AGL
Clouds: sky clear below 12,000 feet AGL
Weather: automated observation with no human augmentation;
there may or may not be significant weather present at this time

METAR text: KMNH 241832Z AUTO 00000KT 10SM CLR 22/M09 A3028 RMK AO2
Conditions at: KMNH (MONUMENT/ELBERT , CO, US) observed 1832 UTC 24 October 2014
Temperature: 22.0°C (72°F)
Dewpoint: -9.0°C (16°F) [RH = 12%]
Pressure (altimeter): 30.28 inches Hg (1025.5 mb)
Winds: calm
Visibility: 10 or more miles (16+ km)
Ceiling: at least 12,000 feet AGL
Clouds: sky clear below 12,000 feet AGL
Weather: automated observation with no human augmentation;
there may or may not be significant weather present at this time

METAR text: KMNH 241812Z AUTO 00000KT 10SM CLR 22/M08 A3030 RMK AO2
Conditions at: KMNH (MONUMENT/ELBERT , CO, US) observed 1812 UTC 24 October 2014
Temperature: 22.0°C (72°F)
Dewpoint: -8.0°C (18°F) [RH = 13%]
Pressure (altimeter): 30.30 inches Hg (1026.2 mb)
Winds: calm
Visibility: 10 or more miles (16+ km)
Ceiling: at least 12,000 feet AGL
Clouds: sky clear below 12,000 feet AGL
Weather: automated observation with no human augmentation;
there may or may not be significant weather present at this time

METAR text: KMNH 241752Z AUTO 20004KT 10SM CLR 22/M07 A3030 RMK AO2
Conditions at: KMNH (MONUMENT/ELBERT , CO, US) observed 1752 UTC 24 October 2014
Temperature: 22.0°C (72°F)
Dewpoint: -7.0°C (19°F) [RH = 14%]
Pressure (altimeter): 30.30 inches Hg (1026.2 mb)
Winds: from the SSW (200 degrees) at 5 MPH (4 knots; 2.1 m/s)
Visibility: 10 or more miles (16+ km)
Ceiling: at least 12,000 feet AGL
Clouds: sky clear below 12,000 feet AGL
Weather: automated observation with no human augmentation;
there may or may not be significant weather present at this time

METAR text: KMNH 241732Z AUTO 00000KT 10SM CLR 22/M07 A3030 RMK AO2
Conditions at: KMNH (MONUMENT/ELBERT , CO, US) observed 1732 UTC 24 October 2014
Temperature: 22.0°C (72°F)
Dewpoint: -7.0°C (19°F) [RH = 14%]
Pressure (altimeter): 30.30 inches Hg (1026.2 mb)
Winds: calm
Visibility: 10 or more miles (16+ km)
Ceiling: at least 12,000 feet AGL
Clouds: sky clear below 12,000 feet AGL
Weather: automated observation with no human augmentation;
there may or may not be significant weather present at this time

METAR text: KMNH 241712Z AUTO 25004KT 10SM CLR 21/M07 A3030 RMK AO2
Conditions at: KMNH (MONUMENT/ELBERT , CO, US) observed 1712 UTC 24 October 2014
Temperature: 21.0°C (70°F)
Dewpoint: -7.0°C (19°F) [RH = 15%]
Pressure (altimeter): 30.30 inches Hg (1026.2 mb)
Winds: from the WSW (250 degrees) at 5 MPH (4 knots; 2.1 m/s)
Visibility: 10 or more miles (16+ km)
Ceiling: at least 12,000 feet AGL
Clouds: sky clear below 12,000 feet AGL
Weather: automated observation with no human augmentation;
there may or may not be significant weather present at this time

METAR text: KMNH 241652Z AUTO 25003KT 10SM CLR 21/M08 A3031 RMK AO2
Conditions at: KMNH (MONUMENT/ELBERT , CO, US) observed 1652 UTC 24 October 2014
Temperature: 21.0°C (70°F)
Dewpoint: -8.0°C (18°F) [RH = 13%]
Pressure (altimeter): 30.31 inches Hg (1026.5 mb)
Winds: from the WSW (250 degrees) at 3 MPH (3 knots; 1.6 m/s)
Visibility: 10 or more miles (16+ km)
Ceiling: at least 12,000 feet AGL
Clouds: sky clear below 12,000 feet AGL
Weather: automated observation with no human augmentation;
there may or may not be significant weather present at this time

METAR text: KMNH 241632Z AUTO 25005KT 10SM CLR 21/M07 A3031 RMK AO2
Conditions at: KMNH (MONUMENT/ELBERT , CO, US) observed 1632 UTC 24 October 2014
Temperature: 21.0°C (70°F)
Dewpoint: -7.0°C (19°F) [RH = 15%]
Pressure (altimeter): 30.31 inches Hg (1026.5 mb)
Winds: from the WSW (250 degrees) at 6 MPH (5 knots; 2.6 m/s)
Visibility: 10 or more miles (16+ km)
Ceiling: at least 12,000 feet AGL
Clouds: sky clear below 12,000 feet AGL
Weather: automated observation with no human augmentation;
there may or may not be significant weather present at this time

METAR text: KMNH 241612Z AUTO 25008KT 10SM CLR 19/M06 A3030 RMK AO2
Conditions at: KMNH (MONUMENT/ELBERT , CO, US) observed 1612 UTC 24 October 2014
Temperature: 19.0°C (66°F)
Dewpoint: -6.0°C (21°F) [RH = 18%]
Pressure (altimeter): 30.30 inches Hg (1026.2 mb)
Winds: from the WSW (250 degrees) at 9 MPH (8 knots; 4.2 m/s)
Visibility: 10 or more miles (16+ km)
Ceiling: at least 12,000 feet AGL
Clouds: sky clear below 12,000 feet AGL
Weather: automated observation with no human augmentation;
there may or may not be significant weather present at this time

METAR text: KMNH 241552Z AUTO 26009KT 10SM CLR 19/M06 A3030 RMK AO2
Conditions at: KMNH (MONUMENT/ELBERT , CO, US) observed 1552 UTC 24 October 2014
Temperature: 19.0°C (66°F)
Dewpoint: -6.0°C (21°F) [RH = 18%]
Pressure (altimeter): 30.30 inches Hg (1026.2 mb)
Winds: from the W (260 degrees) at 10 MPH (9 knots; 4.7 m/s)
Visibility: 10 or more miles (16+ km)
Ceiling: at least 12,000 feet AGL
Clouds: sky clear below 12,000 feet AGL
Weather: automated observation with no human augmentation;
there may or may not be significant weather present at this time

METAR text: KMNH 241530Z AUTO 25007KT 10SM CLR 18/M05 A3030 RMK AO2
Conditions at: KMNH (MONUMENT/ELBERT , CO, US) observed 1530 UTC 24 October 2014
Temperature: 18.0°C (64°F)
Dewpoint: -5.0°C (23°F) [RH = 20%]
Pressure (altimeter): 30.30 inches Hg (1026.2 mb)
Winds: from the WSW (250 degrees) at 8 MPH (7 knots; 3.6 m/s)
Visibility: 10 or more miles (16+ km)
Ceiling: at least 12,000 feet AGL
Clouds: sky clear below 12,000 feet AGL
Weather: automated observation with no human augmentation;
there may or may not be significant weather present at this time

METAR text: KMNH 241512Z AUTO 24004KT 10SM CLR 16/M04 A3030 RMK AO2
Conditions at: KMNH (MONUMENT/ELBERT , CO, US) observed 1512 UTC 24 October 2014
Temperature: 16.0°C (61°F)
Dewpoint: -4.0°C (25°F) [RH = 25%]
Pressure (altimeter): 30.30 inches Hg (1026.2 mb)
Winds: from the WSW (240 degrees) at 5 MPH (4 knots; 2.1 m/s)
Visibility: 10 or more miles (16+ km)
Ceiling: at least 12,000 feet AGL
Clouds: sky clear below 12,000 feet AGL
Weather: automated observation with no human augmentation;
there may or may not be significant weather present at this time

METAR text: KMNH 241452Z AUTO 22005KT 10SM CLR 14/M04 A3029 RMK AO2
Conditions at: KMNH (MONUMENT/ELBERT , CO, US) observed 1452 UTC 24 October 2014
Temperature: 14.0°C (57°F)
Dewpoint: -4.0°C (25°F) [RH = 28%]
Pressure (altimeter): 30.29 inches Hg (1025.8 mb)
Winds: from the SW (220 degrees) at 6 MPH (5 knots; 2.6 m/s)
Visibility: 10 or more miles (16+ km)
Ceiling: at least 12,000 feet AGL
Clouds: sky clear below 12,000 feet AGL
Weather: automated observation with no human augmentation;
there may or may not be significant weather present at this time

METAR text: KMNH 241432Z AUTO 19004KT 10SM CLR 11/M01 A3029 RMK AO2
Conditions at: KMNH (MONUMENT/ELBERT , CO, US) observed 1432 UTC 24 October 2014
Temperature: 11.0°C (52°F)
Dewpoint: -1.0°C (30°F) [RH = 43%]
Pressure (altimeter): 30.29 inches Hg (1025.8 mb)
Winds: from the S (190 degrees) at 5 MPH (4 knots; 2.1 m/s)
Visibility: 10 or more miles (16+ km)
Ceiling: at least 12,000 feet AGL
Clouds: sky clear below 12,000 feet AGL
Weather: automated observation with no human augmentation;
there may or may not be significant weather present at this time

METAR text: KMNH 241412Z AUTO 19005KT 10SM CLR 11/M03 A3028 RMK AO2
Conditions at: KMNH (MONUMENT/ELBERT , CO, US) observed 1412 UTC 24 October 2014
Temperature: 11.0°C (52°F)
Dewpoint: -3.0°C (27°F) [RH = 37%]
Pressure (altimeter): 30.28 inches Hg (1025.5 mb)
Winds: from the S (190 degrees) at 6 MPH (5 knots; 2.6 m/s)
Visibility: 10 or more miles (16+ km)
Ceiling: at least 12,000 feet AGL
Clouds: sky clear below 12,000 feet AGL
Weather: automated observation with no human augmentation;
there may or may not be significant weather present at this time

METAR text: KMNH 241352Z AUTO 19005KT 10SM CLR 10/M03 A3027 RMK AO2
Conditions at: KMNH (MONUMENT/ELBERT , CO, US) observed 1352 UTC 24 October 2014
Temperature: 10.0°C (50°F)
Dewpoint: -3.0°C (27°F) [RH = 40%]
Pressure (altimeter): 30.27 inches Hg (1025.1 mb)
Winds: from the S (190 degrees) at 6 MPH (5 knots; 2.6 m/s)
Visibility: 10 or more miles (16+ km)
Ceiling: at least 12,000 feet AGL
Clouds: sky clear below 12,000 feet AGL
Weather: automated observation with no human augmentation;
there may or may not be significant weather present at this time

METAR text: KMNH 241332Z AUTO 21007KT 10SM CLR 11/M06 A3026 RMK AO2
Conditions at: KMNH (MONUMENT/ELBERT , CO, US) observed 1332 UTC 24 October 2014
Temperature: 11.0°C (52°F)
Dewpoint: -6.0°C (21°F) [RH = 30%]
Pressure (altimeter): 30.26 inches Hg (1024.8 mb)
Winds: from the SSW (210 degrees) at 8 MPH (7 knots; 3.6 m/s)
Visibility: 10 or more miles (16+ km)
Ceiling: at least 12,000 feet AGL
Clouds: sky clear below 12,000 feet AGL
Weather: automated observation with no human augmentation;
there may or may not be significant weather present at this time

METAR text: KMNH 241312Z AUTO 21005KT 10SM CLR 08/M06 A3026 RMK AO2
Conditions at: KMNH (MONUMENT/ELBERT , CO, US) observed 1312 UTC 24 October 2014
Temperature: 8.0°C (46°F)
Dewpoint: -6.0°C (21°F) [RH = 36%]
Pressure (altimeter): 30.26 inches Hg (1024.8 mb)
Winds: from the SSW (210 degrees) at 6 MPH (5 knots; 2.6 m/s)
Visibility: 10 or more miles (16+ km)
Ceiling: at least 12,000 feet AGL
Clouds: sky clear below 12,000 feet AGL
Weather: automated observation with no human augmentation;
there may or may not be significant weather present at this time

METAR text: KMNH 241252Z AUTO 22008KT 10SM CLR 10/M07 A3026 RMK AO2
Conditions at: KMNH (MONUMENT/ELBERT , CO, US) observed 1252 UTC 24 October 2014
Temperature: 10.0°C (50°F)
Dewpoint: -7.0°C (19°F) [RH = 29%]
Pressure (altimeter): 30.26 inches Hg (1024.8 mb)
Winds: from the SW (220 degrees) at 9 MPH (8 knots; 4.2 m/s)
Visibility: 10 or more miles (16+ km)
Ceiling: at least 12,000 feet AGL
Clouds: sky clear below 12,000 feet AGL
Weather: automated observation with no human augmentation;
there may or may not be significant weather present at this time

METAR text: KMNH 241232Z AUTO 24008KT 10SM CLR 10/M06 A3025 RMK AO2
Conditions at: KMNH (MONUMENT/ELBERT , CO, US) observed 1232 UTC 24 October 2014
Temperature: 10.0°C (50°F)
Dewpoint: -6.0°C (21°F) [RH = 32%]
Pressure (altimeter): 30.25 inches Hg (1024.5 mb)
Winds: from the WSW (240 degrees) at 9 MPH (8 knots; 4.2 m/s)
Visibility: 10 or more miles (16+ km)
Ceiling: at least 12,000 feet AGL
Clouds: sky clear below 12,000 feet AGL
Weather: automated observation with no human augmentation;
there may or may not be significant weather present at this time

METAR text: KMNH 241212Z AUTO 22010KT 10SM CLR 08/M06 A3025 RMK AO2
Conditions at: KMNH (MONUMENT/ELBERT , CO, US) observed 1212 UTC 24 October 2014
Temperature: 8.0°C (46°F)
Dewpoint: -6.0°C (21°F) [RH = 36%]
Pressure (altimeter): 30.25 inches Hg (1024.5 mb)
Winds: from the SW (220 degrees) at 12 MPH (10 knots; 5.2 m/s)
Visibility: 10 or more miles (16+ km)
Ceiling: at least 12,000 feet AGL
Clouds: sky clear below 12,000 feet AGL
Weather: automated observation with no human augmentation;
there may or may not be significant weather present at this time

METAR text: KMNH 241152Z AUTO 23011KT 10SM CLR 12/M07 A3025 RMK AO2
Conditions at: KMNH (MONUMENT/ELBERT , CO, US) observed 1152 UTC 24 October 2014
Temperature: 12.0°C (54°F)
Dewpoint: -7.0°C (19°F) [RH = 26%]
Pressure (altimeter): 30.25 inches Hg (1024.5 mb)
Winds: from the SW (230 degrees) at 13 MPH (11 knots; 5.7 m/s)
Visibility: 10 or more miles (16+ km)
Ceiling: at least 12,000 feet AGL
Clouds: sky clear below 12,000 feet AGL
Weather: automated observation with no human augmentation;
there may or may not be significant weather present at this time

METAR text: KMNH 241132Z AUTO 21005KT 10SM CLR 11/M06 A3025 RMK AO2
Conditions at: KMNH (MONUMENT/ELBERT , CO, US) observed 1132 UTC 24 October 2014
Temperature: 11.0°C (52°F)
Dewpoint: -6.0°C (21°F) [RH = 30%]
Pressure (altimeter): 30.25 inches Hg (1024.5 mb)
Winds: from the SSW (210 degrees) at 6 MPH (5 knots; 2.6 m/s)
Visibility: 10 or more miles (16+ km)
Ceiling: at least 12,000 feet AGL
Clouds: sky clear below 12,000 feet AGL
Weather: automated observation with no human augmentation;
there may or may not be significant weather present at this time

METAR text: KMNH 241112Z AUTO 20007KT 10SM CLR 10/M06 A3024 RMK AO2
Conditions at: KMNH (MONUMENT/ELBERT , CO, US) observed 1112 UTC 24 October 2014
Temperature: 10.0°C (50°F)
Dewpoint: -6.0°C (21°F) [RH = 32%]
Pressure (altimeter): 30.24 inches Hg (1024.1 mb)
Winds: from the SSW (200 degrees) at 8 MPH (7 knots; 3.6 m/s)
Visibility: 10 or more miles (16+ km)
Ceiling: at least 12,000 feet AGL
Clouds: sky clear below 12,000 feet AGL
Weather: automated observation with no human augmentation;
there may or may not be significant weather present at this time

METAR text: KMNH 241052Z AUTO 19006KT 10SM CLR 10/M05 A3024 RMK AO2
Conditions at: KMNH (MONUMENT/ELBERT , CO, US) observed 1052 UTC 24 October 2014
Temperature: 10.0°C (50°F)
Dewpoint: -5.0°C (23°F) [RH = 34%]
Pressure (altimeter): 30.24 inches Hg (1024.1 mb)
Winds: from the S (190 degrees) at 7 MPH (6 knots; 3.1 m/s)
Visibility: 10 or more miles (16+ km)
Ceiling: at least 12,000 feet AGL
Clouds: sky clear below 12,000 feet AGL
Weather: automated observation with no human augmentation;
there may or may not be significant weather present at this time

METAR text: KMNH 241032Z AUTO 18005KT 10SM CLR 12/M06 A3024 RMK AO2
Conditions at: KMNH (MONUMENT/ELBERT , CO, US) observed 1032 UTC 24 October 2014
Temperature: 12.0°C (54°F)
Dewpoint: -6.0°C (21°F) [RH = 28%]
Pressure (altimeter): 30.24 inches Hg (1024.1 mb)
Winds: from the S (180 degrees) at 6 MPH (5 knots; 2.6 m/s)
Visibility: 10 or more miles (16+ km)
Ceiling: at least 12,000 feet AGL
Clouds: sky clear below 12,000 feet AGL
Weather: automated observation with no human augmentation;
there may or may not be significant weather present at this time

METAR text: KMNH 241012Z AUTO 20006KT 10SM CLR 11/M06 A3024 RMK AO2
Conditions at: KMNH (MONUMENT/ELBERT , CO, US) observed 1012 UTC 24 October 2014
Temperature: 11.0°C (52°F)
Dewpoint: -6.0°C (21°F) [RH = 30%]
Pressure (altimeter): 30.24 inches Hg (1024.1 mb)
Winds: from the SSW (200 degrees) at 7 MPH (6 knots; 3.1 m/s)
Visibility: 10 or more miles (16+ km)
Ceiling: at least 12,000 feet AGL
Clouds: sky clear below 12,000 feet AGL
Weather: automated observation with no human augmentation;
there may or may not be significant weather present at this time

METAR text: KMNH 240952Z AUTO 18006KT 10SM CLR 08/M04 A3024 RMK AO2
Conditions at: KMNH (MONUMENT/ELBERT , CO, US) observed 0952 UTC 24 October 2014
Temperature: 8.0°C (46°F)
Dewpoint: -4.0°C (25°F) [RH = 42%]
Pressure (altimeter): 30.24 inches Hg (1024.1 mb)
Winds: from the S (180 degrees) at 7 MPH (6 knots; 3.1 m/s)
Visibility: 10 or more miles (16+ km)
Ceiling: at least 12,000 feet AGL
Clouds: sky clear below 12,000 feet AGL
Weather: automated observation with no human augmentation;
there may or may not be significant weather present at this time

METAR text: KMNH 240932Z AUTO 22007KT 10SM CLR 12/M06 A3024 RMK AO2
Conditions at: KMNH (MONUMENT/ELBERT , CO, US) observed 0932 UTC 24 October 2014
Temperature: 12.0°C (54°F)
Dewpoint: -6.0°C (21°F) [RH = 28%]
Pressure (altimeter): 30.24 inches Hg (1024.1 mb)
Winds: from the SW (220 degrees) at 8 MPH (7 knots; 3.6 m/s)
Visibility: 10 or more miles (16+ km)
Ceiling: at least 12,000 feet AGL
Clouds: sky clear below 12,000 feet AGL
Weather: automated observation with no human augmentation;
there may or may not be significant weather present at this time

METAR text: KMNH 240912Z AUTO 24010KT 10SM CLR 11/M05 A3024 RMK AO2
Conditions at: KMNH (MONUMENT/ELBERT , CO, US) observed 0912 UTC 24 October 2014
Temperature: 11.0°C (52°F)
Dewpoint: -5.0°C (23°F) [RH = 32%]
Pressure (altimeter): 30.24 inches Hg (1024.1 mb)
Winds: from the WSW (240 degrees) at 12 MPH (10 knots; 5.2 m/s)
Visibility: 10 or more miles (16+ km)
Ceiling: at least 12,000 feet AGL
Clouds: sky clear below 12,000 feet AGL
Weather: automated observation with no human augmentation;
there may or may not be significant weather present at this time

METAR text: KMNH 240851Z AUTO 25010KT 10SM CLR 11/M04 A3024 RMK AO2
Conditions at: KMNH (MONUMENT/ELBERT , CO, US) observed 0851 UTC 24 October 2014
Temperature: 11.0°C (52°F)
Dewpoint: -4.0°C (25°F) [RH = 35%]
Pressure (altimeter): 30.24 inches Hg (1024.1 mb)
Winds: from the WSW (250 degrees) at 12 MPH (10 knots; 5.2 m/s)
Visibility: 10 or more miles (16+ km)
Ceiling: at least 12,000 feet AGL
Clouds: sky clear below 12,000 feet AGL
Weather: automated observation with no human augmentation;
there may or may not be significant weather present at this time

METAR text: KMNH 240832Z AUTO 25011KT 10SM CLR 12/M04 A3024 RMK AO2
Conditions at: KMNH (MONUMENT/ELBERT , CO, US) observed 0832 UTC 24 October 2014
Temperature: 12.0°C (54°F)
Dewpoint: -4.0°C (25°F) [RH = 32%]
Pressure (altimeter): 30.24 inches Hg (1024.1 mb)
Winds: from the WSW (250 degrees) at 13 MPH (11 knots; 5.7 m/s)
Visibility: 10 or more miles (16+ km)
Ceiling: at least 12,000 feet AGL
Clouds: sky clear below 12,000 feet AGL
Weather: automated observation with no human augmentation;
there may or may not be significant weather present at this time

METAR text: KMNH 240811Z AUTO 24012KT 10SM CLR 11/M04 A3023 RMK AO2
Conditions at: KMNH (MONUMENT/ELBERT , CO, US) observed 0811 UTC 24 October 2014
Temperature: 11.0°C (52°F)
Dewpoint: -4.0°C (25°F) [RH = 35%]
Pressure (altimeter): 30.23 inches Hg (1023.8 mb)
Winds: from the WSW (240 degrees) at 14 MPH (12 knots; 6.2 m/s)
Visibility: 10 or more miles (16+ km)
Ceiling: at least 12,000 feet AGL
Clouds: sky clear below 12,000 feet AGL
Weather: automated observation with no human augmentation;
there may or may not be significant weather present at this time

METAR text: KMNH 240752Z AUTO 24009KT 10SM CLR 12/M03 A3023 RMK AO2
Conditions at: KMNH (MONUMENT/ELBERT , CO, US) observed 0752 UTC 24 October 2014
Temperature: 12.0°C (54°F)
Dewpoint: -3.0°C (27°F) [RH = 35%]
Pressure (altimeter): 30.23 inches Hg (1023.8 mb)
Winds: from the WSW (240 degrees) at 10 MPH (9 knots; 4.7 m/s)
Visibility: 10 or more miles (16+ km)
Ceiling: at least 12,000 feet AGL
Clouds: sky clear below 12,000 feet AGL
Weather: automated observation with no human augmentation;
there may or may not be significant weather present at this time

METAR text: KMNH 240732Z AUTO 24009KT 10SM CLR 11/M03 A3023 RMK AO2
Conditions at: KMNH (MONUMENT/ELBERT , CO, US) observed 0732 UTC 24 October 2014
Temperature: 11.0°C (52°F)
Dewpoint: -3.0°C (27°F) [RH = 37%]
Pressure (altimeter): 30.23 inches Hg (1023.8 mb)
Winds: from the WSW (240 degrees) at 10 MPH (9 knots; 4.7 m/s)
Visibility: 10 or more miles (16+ km)
Ceiling: at least 12,000 feet AGL
Clouds: sky clear below 12,000 feet AGL
Weather: automated observation with no human augmentation;
there may or may not be significant weather present at this time

METAR text: KMNH 240712Z AUTO 23007KT 10SM CLR 11/M02 A3023 RMK AO2
Conditions at: KMNH (MONUMENT/ELBERT , CO, US) observed 0712 UTC 24 October 2014
Temperature: 11.0°C (52°F)
Dewpoint: -2.0°C (28°F) [RH = 40%]
Pressure (altimeter): 30.23 inches Hg (1023.8 mb)
Winds: from the SW (230 degrees) at 8 MPH (7 knots; 3.6 m/s)
Visibility: 10 or more miles (16+ km)
Ceiling: at least 12,000 feet AGL
Clouds: sky clear below 12,000 feet AGL
Weather: automated observation with no human augmentation;
there may or may not be significant weather present at this time

METAR text: KMNH 240652Z AUTO 20007KT 10SM CLR 08/M01 A3023 RMK AO2
Conditions at: KMNH (MONUMENT/ELBERT , CO, US) observed 0652 UTC 24 October 2014
Temperature: 8.0°C (46°F)
Dewpoint: -1.0°C (30°F) [RH = 53%]
Pressure (altimeter): 30.23 inches Hg (1023.8 mb)
Winds: from the SSW (200 degrees) at 8 MPH (7 knots; 3.6 m/s)
Visibility: 10 or more miles (16+ km)
Ceiling: at least 12,000 feet AGL
Clouds: sky clear below 12,000 feet AGL
Weather: automated observation with no human augmentation;
there may or may not be significant weather present at this time

METAR text: KMNH 240632Z AUTO 21007KT 10SM CLR 10/M01 A3023 RMK AO2
Conditions at: KMNH (MONUMENT/ELBERT , CO, US) observed 0632 UTC 24 October 2014
Temperature: 10.0°C (50°F)
Dewpoint: -1.0°C (30°F) [RH = 46%]
Pressure (altimeter): 30.23 inches Hg (1023.8 mb)
Winds: from the SSW (210 degrees) at 8 MPH (7 knots; 3.6 m/s)
Visibility: 10 or more miles (16+ km)
Ceiling: at least 12,000 feet AGL
Clouds: sky clear below 12,000 feet AGL
Weather: automated observation with no human augmentation;
there may or may not be significant weather present at this time

METAR text: KMNH 240611Z AUTO 19006KT 10SM CLR 08/M01 A3023 RMK AO2
Conditions at: KMNH (MONUMENT/ELBERT , CO, US) observed 0611 UTC 24 October 2014
Temperature: 8.0°C (46°F)
Dewpoint: -1.0°C (30°F) [RH = 53%]
Pressure (altimeter): 30.23 inches Hg (1023.8 mb)
Winds: from the S (190 degrees) at 7 MPH (6 knots; 3.1 m/s)
Visibility: 10 or more miles (16+ km)
Ceiling: at least 12,000 feet AGL
Clouds: sky clear below 12,000 feet AGL
Weather: automated observation with no human augmentation;
there may or may not be significant weather present at this time

METAR text: KMNH 240552Z AUTO 17009KT 10SM CLR 08/M01 A3024 RMK AO2
Conditions at: KMNH (MONUMENT/ELBERT , CO, US) observed 0552 UTC 24 October 2014
Temperature: 8.0°C (46°F)
Dewpoint: -1.0°C (30°F) [RH = 53%]
Pressure (altimeter): 30.24 inches Hg (1024.1 mb)
Winds: from the S (170 degrees) at 10 MPH (9 knots; 4.7 m/s)
Visibility: 10 or more miles (16+ km)
Ceiling: at least 12,000 feet AGL
Clouds: sky clear below 12,000 feet AGL
Weather: automated observation with no human augmentation;
there may or may not be significant weather present at this time

METAR text: KMNH 240532Z AUTO 19009KT 10SM CLR 09/M01 A3024 RMK AO2
Conditions at: KMNH (MONUMENT/ELBERT , CO, US) observed 0532 UTC 24 October 2014
Temperature: 9.0°C (48°F)
Dewpoint: -1.0°C (30°F) [RH = 49%]
Pressure (altimeter): 30.24 inches Hg (1024.1 mb)
Winds: from the S (190 degrees) at 10 MPH (9 knots; 4.7 m/s)
Visibility: 10 or more miles (16+ km)
Ceiling: at least 12,000 feet AGL
Clouds: sky clear below 12,000 feet AGL
Weather: automated observation with no human augmentation;
there may or may not be significant weather present at this time

METAR text: KMNH 240512Z AUTO 20009KT 10SM CLR 10/M01 A3025 RMK AO2
Conditions at: KMNH (MONUMENT/ELBERT , CO, US) observed 0512 UTC 24 October 2014
Temperature: 10.0°C (50°F)
Dewpoint: -1.0°C (30°F) [RH = 46%]
Pressure (altimeter): 30.25 inches Hg (1024.5 mb)
Winds: from the SSW (200 degrees) at 10 MPH (9 knots; 4.7 m/s)
Visibility: 10 or more miles (16+ km)
Ceiling: at least 12,000 feet AGL
Clouds: sky clear below 12,000 feet AGL
Weather: automated observation with no human augmentation;
there may or may not be significant weather present at this time

METAR text: KMNH 240452Z AUTO 19007KT 10SM CLR 08/M01 A3025 RMK AO2
Conditions at: KMNH (MONUMENT/ELBERT , CO, US) observed 0452 UTC 24 October 2014
Temperature: 8.0°C (46°F)
Dewpoint: -1.0°C (30°F) [RH = 53%]
Pressure (altimeter): 30.25 inches Hg (1024.5 mb)
Winds: from the S (190 degrees) at 8 MPH (7 knots; 3.6 m/s)
Visibility: 10 or more miles (16+ km)
Ceiling: at least 12,000 feet AGL
Clouds: sky clear below 12,000 feet AGL
Weather: automated observation with no human augmentation;
there may or may not be significant weather present at this time

METAR text: KMNH 240432Z AUTO 20010KT 10SM CLR 08/M01 A3024 RMK AO2
Conditions at: KMNH (MONUMENT/ELBERT , CO, US) observed 0432 UTC 24 October 2014
Temperature: 8.0°C (46°F)
Dewpoint: -1.0°C (30°F) [RH = 53%]
Pressure (altimeter): 30.24 inches Hg (1024.1 mb)
Winds: from the SSW (200 degrees) at 12 MPH (10 knots; 5.2 m/s)
Visibility: 10 or more miles (16+ km)
Ceiling: at least 12,000 feet AGL
Clouds: sky clear below 12,000 feet AGL
Weather: automated observation with no human augmentation;
there may or may not be significant weather present at this time

METAR text: KMNH 240412Z AUTO 19011KT 10SM CLR 09/M01 A3024 RMK AO2
Conditions at: KMNH (MONUMENT/ELBERT , CO, US) observed 0412 UTC 24 October 2014
Temperature: 9.0°C (48°F)
Dewpoint: -1.0°C (30°F) [RH = 49%]
Pressure (altimeter): 30.24 inches Hg (1024.1 mb)
Winds: from the S (190 degrees) at 13 MPH (11 knots; 5.7 m/s)
Visibility: 10 or more miles (16+ km)
Ceiling: at least 12,000 feet AGL
Clouds: sky clear below 12,000 feet AGL
Weather: automated observation with no human augmentation;
there may or may not be significant weather present at this time

METAR text: KMNH 240352Z AUTO 19012KT 10SM CLR 08/00 A3024 RMK AO2
Conditions at: KMNH (MONUMENT/ELBERT , CO, US) observed 0352 UTC 24 October 2014
Temperature: 8.0°C (46°F)
Dewpoint: 0.0°C (32°F) [RH = 57%]
Pressure (altimeter): 30.24 inches Hg (1024.1 mb)
Winds: from the S (190 degrees) at 14 MPH (12 knots; 6.2 m/s)
Visibility: 10 or more miles (16+ km)
Ceiling: at least 12,000 feet AGL
Clouds: sky clear below 12,000 feet AGL
Weather: automated observation with no human augmentation;
there may or may not be significant weather present at this time

METAR text: KMNH 240332Z AUTO 19011KT 10SM CLR 10/M01 A3025 RMK AO2
Conditions at: KMNH (MONUMENT/ELBERT , CO, US) observed 0332 UTC 24 October 2014
Temperature: 10.0°C (50°F)
Dewpoint: -1.0°C (30°F) [RH = 46%]
Pressure (altimeter): 30.25 inches Hg (1024.5 mb)
Winds: from the S (190 degrees) at 13 MPH (11 knots; 5.7 m/s)
Visibility: 10 or more miles (16+ km)
Ceiling: at least 12,000 feet AGL
Clouds: sky clear below 12,000 feet AGL
Weather: automated observation with no human augmentation;
there may or may not be significant weather present at this time

METAR text: KMNH 240312Z AUTO 20009KT 10SM CLR 08/M02 A3025 RMK AO2
Conditions at: KMNH (MONUMENT/ELBERT , CO, US) observed 0312 UTC 24 October 2014
Temperature: 8.0°C (46°F)
Dewpoint: -2.0°C (28°F) [RH = 49%]
Pressure (altimeter): 30.25 inches Hg (1024.5 mb)
Winds: from the SSW (200 degrees) at 10 MPH (9 knots; 4.7 m/s)
Visibility: 10 or more miles (16+ km)
Ceiling: at least 12,000 feet AGL
Clouds: sky clear below 12,000 feet AGL
Weather: automated observation with no human augmentation;
there may or may not be significant weather present at this time

METAR text: KMNH 240252Z AUTO 17009KT 10SM CLR 09/M02 A3024 RMK AO2
Conditions at: KMNH (MONUMENT/ELBERT , CO, US) observed 0252 UTC 24 October 2014
Temperature: 9.0°C (48°F)
Dewpoint: -2.0°C (28°F) [RH = 46%]
Pressure (altimeter): 30.24 inches Hg (1024.1 mb)
Winds: from the S (170 degrees) at 10 MPH (9 knots; 4.7 m/s)
Visibility: 10 or more miles (16+ km)
Ceiling: at least 12,000 feet AGL
Clouds: sky clear below 12,000 feet AGL
Weather: automated observation with no human augmentation;
there may or may not be significant weather present at this time

METAR text: KMNH 240232Z AUTO 16008KT 10SM CLR 08/M02 A3024 RMK AO2
Conditions at: KMNH (MONUMENT/ELBERT , CO, US) observed 0232 UTC 24 October 2014
Temperature: 8.0°C (46°F)
Dewpoint: -2.0°C (28°F) [RH = 49%]
Pressure (altimeter): 30.24 inches Hg (1024.1 mb)
Winds: from the SSE (160 degrees) at 9 MPH (8 knots; 4.2 m/s)
Visibility: 10 or more miles (16+ km)
Ceiling: at least 12,000 feet AGL
Clouds: sky clear below 12,000 feet AGL
Weather: automated observation with no human augmentation;
there may or may not be significant weather present at this time

METAR text: KMNH 240212Z AUTO 19010KT 10SM CLR 11/M02 A3023 RMK AO2
Conditions at: KMNH (MONUMENT/ELBERT , CO, US) observed 0212 UTC 24 October 2014
Temperature: 11.0°C (52°F)
Dewpoint: -2.0°C (28°F) [RH = 40%]
Pressure (altimeter): 30.23 inches Hg (1023.8 mb)
Winds: from the S (190 degrees) at 12 MPH (10 knots; 5.2 m/s)
Visibility: 10 or more miles (16+ km)
Ceiling: at least 12,000 feet AGL
Clouds: sky clear below 12,000 feet AGL
Weather: automated observation with no human augmentation;
there may or may not be significant weather present at this time

METAR text: KMNH 240152Z AUTO 20011KT 10SM CLR 09/M02 A3023 RMK AO2
Conditions at: KMNH (MONUMENT/ELBERT , CO, US) observed 0152 UTC 24 October 2014
Temperature: 9.0°C (48°F)
Dewpoint: -2.0°C (28°F) [RH = 46%]
Pressure (altimeter): 30.23 inches Hg (1023.8 mb)
Winds: from the SSW (200 degrees) at 13 MPH (11 knots; 5.7 m/s)
Visibility: 10 or more miles (16+ km)
Ceiling: at least 12,000 feet AGL
Clouds: sky clear below 12,000 feet AGL
Weather: automated observation with no human augmentation;
there may or may not be significant weather present at this time

METAR text: KMNH 240131Z AUTO 18005KT 10SM CLR 09/M01 A3023 RMK AO2
Conditions at: KMNH (MONUMENT/ELBERT , CO, US) observed 0131 UTC 24 October 2014
Temperature: 9.0°C (48°F)
Dewpoint: -1.0°C (30°F) [RH = 49%]
Pressure (altimeter): 30.23 inches Hg (1023.8 mb)
Winds: from the S (180 degrees) at 6 MPH (5 knots; 2.6 m/s)
Visibility: 10 or more miles (16+ km)
Ceiling: at least 12,000 feet AGL
Clouds: sky clear below 12,000 feet AGL
Weather: automated observation with no human augmentation;
there may or may not be significant weather present at this time

METAR text: KMNH 240112Z AUTO 17008KT 10SM CLR 10/M01 A3023 RMK AO2
Conditions at: KMNH (MONUMENT/ELBERT , CO, US) observed 0112 UTC 24 October 2014
Temperature: 10.0°C (50°F)
Dewpoint: -1.0°C (30°F) [RH = 46%]
Pressure (altimeter): 30.23 inches Hg (1023.8 mb)
Winds: from the S (170 degrees) at 9 MPH (8 knots; 4.2 m/s)
Visibility: 10 or more miles (16+ km)
Ceiling: at least 12,000 feet AGL
Clouds: sky clear below 12,000 feet AGL
Weather: automated observation with no human augmentation;
there may or may not be significant weather present at this time

METAR text: KMNH 240052Z AUTO 16009KT 10SM CLR 08/00 A3023 RMK AO2
Conditions at: KMNH (MONUMENT/ELBERT , CO, US) observed 0052 UTC 24 October 2014
Temperature: 8.0°C (46°F)
Dewpoint: 0.0°C (32°F) [RH = 57%]
Pressure (altimeter): 30.23 inches Hg (1023.8 mb)
Winds: from the SSE (160 degrees) at 10 MPH (9 knots; 4.7 m/s)
Visibility: 10 or more miles (16+ km)
Ceiling: at least 12,000 feet AGL
Clouds: sky clear below 12,000 feet AGL
Weather: automated observation with no human augmentation;
there may or may not be significant weather present at this time

METAR text: KMNH 240032Z AUTO 19007KT 10SM CLR 09/00 A3023 RMK AO2
Conditions at: KMNH (MONUMENT/ELBERT , CO, US) observed 0032 UTC 24 October 2014
Temperature: 9.0°C (48°F)
Dewpoint: 0.0°C (32°F) [RH = 53%]
Pressure (altimeter): 30.23 inches Hg (1023.8 mb)
Winds: from the S (190 degrees) at 8 MPH (7 knots; 3.6 m/s)
Visibility: 10 or more miles (16+ km)
Ceiling: at least 12,000 feet AGL
Clouds: sky clear below 12,000 feet AGL
Weather: automated observation with no human augmentation;
there may or may not be significant weather present at this time

METAR text: KMNH 240012Z AUTO 17006KT 7SM CLR 11/00 A3023 RMK AO2
Conditions at: KMNH (MONUMENT/ELBERT , CO, US) observed 0012 UTC 24 October 2014
Temperature: 11.0°C (52°F)
Dewpoint: 0.0°C (32°F) [RH = 47%]
Pressure (altimeter): 30.23 inches Hg (1023.8 mb)
Winds: from the S (170 degrees) at 7 MPH (6 knots; 3.1 m/s)
Visibility: 7 miles (11 km)
Ceiling: at least 12,000 feet AGL
Clouds: sky clear below 12,000 feet AGL
Weather: automated observation with no human augmentation;
there may or may not be significant weather present at this time

METAR text: KMNH 232352Z AUTO 18005KT 10SM CLR 13/00 A3021 RMK AO2
Conditions at: KMNH (MONUMENT/ELBERT , CO, US) observed 2352 UTC 23 October 2014
Temperature: 13.0°C (55°F)
Dewpoint: 0.0°C (32°F) [RH = 41%]
Pressure (altimeter): 30.21 inches Hg (1023.1 mb)
Winds: from the S (180 degrees) at 6 MPH (5 knots; 2.6 m/s)
Visibility: 10 or more miles (16+ km)
Ceiling: at least 12,000 feet AGL
Clouds: sky clear below 12,000 feet AGL
Weather: automated observation with no human augmentation;
there may or may not be significant weather present at this time

METAR text: KMNH 232332Z AUTO 16005KT 10SM CLR 15/00 A3021 RMK AO2
Conditions at: KMNH (MONUMENT/ELBERT , CO, US) observed 2332 UTC 23 October 2014
Temperature: 15.0°C (59°F)
Dewpoint: 0.0°C (32°F) [RH = 36%]
Pressure (altimeter): 30.21 inches Hg (1023.1 mb)
Winds: from the SSE (160 degrees) at 6 MPH (5 knots; 2.6 m/s)
Visibility: 10 or more miles (16+ km)
Ceiling: at least 12,000 feet AGL
Clouds: sky clear below 12,000 feet AGL
Weather: automated observation with no human augmentation;
there may or may not be significant weather present at this time

METAR text: KMNH 232312Z AUTO 13005KT 10SM CLR 16/00 A3022 RMK AO2
Conditions at: KMNH (MONUMENT/ELBERT , CO, US) observed 2312 UTC 23 October 2014
Temperature: 16.0°C (61°F)
Dewpoint: 0.0°C (32°F) [RH = 34%]
Pressure (altimeter): 30.22 inches Hg (1023.5 mb)
Winds: from the SE (130 degrees) at 6 MPH (5 knots; 2.6 m/s)
Visibility: 10 or more miles (16+ km)
Ceiling: at least 12,000 feet AGL
Clouds: sky clear below 12,000 feet AGL
Weather: automated observation with no human augmentation;
there may or may not be significant weather present at this time

METAR text: KMNH 232252Z AUTO 00000KT 10SM CLR 16/00 A3021 RMK AO2
Conditions at: KMNH (MONUMENT/ELBERT , CO, US) observed 2252 UTC 23 October 2014
Temperature: 16.0°C (61°F)
Dewpoint: 0.0°C (32°F) [RH = 34%]
Pressure (altimeter): 30.21 inches Hg (1023.1 mb)
Winds: calm
Visibility: 10 or more miles (16+ km)
Ceiling: at least 12,000 feet AGL
Clouds: sky clear below 12,000 feet AGL
Weather: automated observation with no human augmentation;
there may or may not be significant weather present at this time

METAR text: KMNH 232232Z AUTO 00000KT 10SM CLR 17/M02 A3021 RMK AO2
Conditions at: KMNH (MONUMENT/ELBERT , CO, US) observed 2232 UTC 23 October 2014
Temperature: 17.0°C (63°F)
Dewpoint: -2.0°C (28°F) [RH = 27%]
Pressure (altimeter): 30.21 inches Hg (1023.1 mb)
Winds: calm
Visibility: 10 or more miles (16+ km)
Ceiling: at least 12,000 feet AGL
Clouds: sky clear below 12,000 feet AGL
Weather: automated observation with no human augmentation;
there may or may not be significant weather present at this time

METAR text: KMNH 232211Z AUTO 02003KT 10SM CLR 17/M02 A3020 RMK AO2
Conditions at: KMNH (MONUMENT/ELBERT , CO, US) observed 2211 UTC 23 October 2014
Temperature: 17.0°C (63°F)
Dewpoint: -2.0°C (28°F) [RH = 27%]
Pressure (altimeter): 30.20 inches Hg (1022.8 mb)
Winds: from the NNE (20 degrees) at 3 MPH (3 knots; 1.6 m/s)
Visibility: 10 or more miles (16+ km)
Ceiling: at least 12,000 feet AGL
Clouds: sky clear below 12,000 feet AGL
Weather: automated observation with no human augmentation;
there may or may not be significant weather present at this time

METAR text: KMNH 232152Z AUTO 00000KT 10SM CLR 19/M03 A3020 RMK AO2
Conditions at: KMNH (MONUMENT/ELBERT , CO, US) observed 2152 UTC 23 October 2014
Temperature: 19.0°C (66°F)
Dewpoint: -3.0°C (27°F) [RH = 22%]
Pressure (altimeter): 30.20 inches Hg (1022.8 mb)
Winds: calm
Visibility: 10 or more miles (16+ km)
Ceiling: at least 12,000 feet AGL
Clouds: sky clear below 12,000 feet AGL
Weather: automated observation with no human augmentation;
there may or may not be significant weather present at this time

METAR text: KMNH 232131Z AUTO 00000KT 10SM CLR 20/M03 A3020 RMK AO2
Conditions at: KMNH (MONUMENT/ELBERT , CO, US) observed 2131 UTC 23 October 2014
Temperature: 20.0°C (68°F)
Dewpoint: -3.0°C (27°F) [RH = 21%]
Pressure (altimeter): 30.20 inches Hg (1022.8 mb)
Winds: calm
Visibility: 10 or more miles (16+ km)
Ceiling: at least 12,000 feet AGL
Clouds: sky clear below 12,000 feet AGL
Weather: automated observation with no human augmentation;
there may or may not be significant weather present at this time

METAR text: KMNH 232111Z AUTO 00000KT 10SM CLR 20/M03 A3020 RMK AO2
Conditions at: KMNH (MONUMENT/ELBERT , CO, US) observed 2111 UTC 23 October 2014
Temperature: 20.0°C (68°F)
Dewpoint: -3.0°C (27°F) [RH = 21%]
Pressure (altimeter): 30.20 inches Hg (1022.8 mb)
Winds: calm
Visibility: 10 or more miles (16+ km)
Ceiling: at least 12,000 feet AGL
Clouds: sky clear below 12,000 feet AGL
Weather: automated observation with no human augmentation;
there may or may not be significant weather present at this time

METAR text: KMNH 232051Z AUTO 34003KT 10SM CLR 19/M03 A3020 RMK AO2
Conditions at: KMNH (MONUMENT/ELBERT , CO, US) observed 2051 UTC 23 October 2014
Temperature: 19.0°C (66°F)
Dewpoint: -3.0°C (27°F) [RH = 22%]
Pressure (altimeter): 30.20 inches Hg (1022.8 mb)
Winds: from the NNW (340 degrees) at 3 MPH (3 knots; 1.6 m/s)
Visibility: 10 or more miles (16+ km)
Ceiling: at least 12,000 feet AGL
Clouds: sky clear below 12,000 feet AGL
Weather: automated observation with no human augmentation;
there may or may not be significant weather present at this time

METAR text: KMNH 232032Z AUTO 36007KT 10SM CLR 20/M03 A3021 RMK AO2
Conditions at: KMNH (MONUMENT/ELBERT , CO, US) observed 2032 UTC 23 October 2014
Temperature: 20.0°C (68°F)
Dewpoint: -3.0°C (27°F) [RH = 21%]
Pressure (altimeter): 30.21 inches Hg (1023.1 mb)
Winds: from the N (360 degrees) at 8 MPH (7 knots; 3.6 m/s)
Visibility: 10 or more miles (16+ km)
Ceiling: at least 12,000 feet AGL
Clouds: sky clear below 12,000 feet AGL
Weather: automated observation with no human augmentation;
there may or may not be significant weather present at this time

METAR text: KMNH 232012Z AUTO 33005KT 10SM CLR 20/M03 A3021 RMK AO2
Conditions at: KMNH (MONUMENT/ELBERT , CO, US) observed 2012 UTC 23 October 2014
Temperature: 20.0°C (68°F)
Dewpoint: -3.0°C (27°F) [RH = 21%]
Pressure (altimeter): 30.21 inches Hg (1023.1 mb)
Winds: from the NNW (330 degrees) at 6 MPH (5 knots; 2.6 m/s)
Visibility: 10 or more miles (16+ km)
Ceiling: at least 12,000 feet AGL
Clouds: sky clear below 12,000 feet AGL
Weather: automated observation with no human augmentation;
there may or may not be significant weather present at this time

METAR text: KMNH 231952Z AUTO 01006KT 10SM CLR 19/M04 A3022 RMK AO2
Conditions at: KMNH (MONUMENT/ELBERT , CO, US) observed 1952 UTC 23 October 2014
Temperature: 19.0°C (66°F)
Dewpoint: -4.0°C (25°F) [RH = 21%]
Pressure (altimeter): 30.22 inches Hg (1023.5 mb)
Winds: from the N (10 degrees) at 7 MPH (6 knots; 3.1 m/s)
Visibility: 10 or more miles (16+ km)
Ceiling: at least 12,000 feet AGL
Clouds: sky clear below 12,000 feet AGL
Weather: automated observation with no human augmentation;
there may or may not be significant weather present at this time

METAR text: KMNH 231932Z AUTO 30004KT 10SM CLR 18/M03 A3022 RMK AO2
Conditions at: KMNH (MONUMENT/ELBERT , CO, US) observed 1932 UTC 23 October 2014
Temperature: 18.0°C (64°F)
Dewpoint: -3.0°C (27°F) [RH = 24%]
Pressure (altimeter): 30.22 inches Hg (1023.5 mb)
Winds: from the WNW (300 degrees) at 5 MPH (4 knots; 2.1 m/s)
Visibility: 10 or more miles (16+ km)
Ceiling: at least 12,000 feet AGL
Clouds: sky clear below 12,000 feet AGL
Weather: automated observation with no human augmentation;
there may or may not be significant weather present at this time

METAR text: KMNH 231912Z AUTO 27007KT 10SM CLR 19/M04 A3023 RMK AO2
Conditions at: KMNH (MONUMENT/ELBERT , CO, US) observed 1912 UTC 23 October 2014
Temperature: 19.0°C (66°F)
Dewpoint: -4.0°C (25°F) [RH = 21%]
Pressure (altimeter): 30.23 inches Hg (1023.8 mb)
Winds: from the W (270 degrees) at 8 MPH (7 knots; 3.6 m/s)
Visibility: 10 or more miles (16+ km)
Ceiling: at least 12,000 feet AGL
Clouds: sky clear below 12,000 feet AGL
Weather: automated observation with no human augmentation;
there may or may not be significant weather present at this time

METAR text: KMNH 231852Z AUTO 27006KT 10SM CLR 19/M05 A3023 RMK AO2
Conditions at: KMNH (MONUMENT/ELBERT , CO, US) observed 1852 UTC 23 October 2014
Temperature: 19.0°C (66°F)
Dewpoint: -5.0°C (23°F) [RH = 19%]
Pressure (altimeter): 30.23 inches Hg (1023.8 mb)
Winds: from the W (270 degrees) at 7 MPH (6 knots; 3.1 m/s)
Visibility: 10 or more miles (16+ km)
Ceiling: at least 12,000 feet AGL
Clouds: sky clear below 12,000 feet AGL
Weather: automated observation with no human augmentation;
there may or may not be significant weather present at this time

METAR text: KMNH 231832Z AUTO 29004KT 10SM CLR 18/M05 A3023 RMK AO2
Conditions at: KMNH (MONUMENT/ELBERT , CO, US) observed 1832 UTC 23 October 2014
Temperature: 18.0°C (64°F)
Dewpoint: -5.0°C (23°F) [RH = 20%]
Pressure (altimeter): 30.23 inches Hg (1023.8 mb)
Winds: from the WNW (290 degrees) at 5 MPH (4 knots; 2.1 m/s)
Visibility: 10 or more miles (16+ km)
Ceiling: at least 12,000 feet AGL
Clouds: sky clear below 12,000 feet AGL
Weather: automated observation with no human augmentation;
there may or may not be significant weather present at this time

METAR text: KMNH 231812Z AUTO 31003KT 10SM CLR 18/M05 A3024 RMK AO2
Conditions at: KMNH (MONUMENT/ELBERT , CO, US) observed 1812 UTC 23 October 2014
Temperature: 18.0°C (64°F)
Dewpoint: -5.0°C (23°F) [RH = 20%]
Pressure (altimeter): 30.24 inches Hg (1024.1 mb)
Winds: from the NW (310 degrees) at 3 MPH (3 knots; 1.6 m/s)
Visibility: 10 or more miles (16+ km)
Ceiling: at least 12,000 feet AGL
Clouds: sky clear below 12,000 feet AGL
Weather: automated observation with no human augmentation;
there may or may not be significant weather present at this time

METAR text: KMNH 231752Z AUTO 30003KT 10SM CLR 18/M05 A3025 RMK AO2
Conditions at: KMNH (MONUMENT/ELBERT , CO, US) observed 1752 UTC 23 October 2014
Temperature: 18.0°C (64°F)
Dewpoint: -5.0°C (23°F) [RH = 20%]
Pressure (altimeter): 30.25 inches Hg (1024.5 mb)
Winds: from the WNW (300 degrees) at 3 MPH (3 knots; 1.6 m/s)
Visibility: 10 or more miles (16+ km)
Ceiling: at least 12,000 feet AGL
Clouds: sky clear below 12,000 feet AGL
Weather: automated observation with no human augmentation;
there may or may not be significant weather present at this time

METAR text: KMNH 231732Z AUTO 26005KT 10SM CLR 17/M04 A3025 RMK AO2
Conditions at: KMNH (MONUMENT/ELBERT , CO, US) observed 1732 UTC 23 October 2014
Temperature: 17.0°C (63°F)
Dewpoint: -4.0°C (25°F) [RH = 23%]
Pressure (altimeter): 30.25 inches Hg (1024.5 mb)
Winds: from the W (260 degrees) at 6 MPH (5 knots; 2.6 m/s)
Visibility: 10 or more miles (16+ km)
Ceiling: at least 12,000 feet AGL
Clouds: sky clear below 12,000 feet AGL
Weather: automated observation with no human augmentation;
there may or may not be significant weather present at this time

METAR text: KMNH 231712Z AUTO 24004KT 10SM CLR 17/M04 A3026 RMK AO2
Conditions at: KMNH (MONUMENT/ELBERT , CO, US) observed 1712 UTC 23 October 2014
Temperature: 17.0°C (63°F)
Dewpoint: -4.0°C (25°F) [RH = 23%]
Pressure (altimeter): 30.26 inches Hg (1024.8 mb)
Winds: from the WSW (240 degrees) at 5 MPH (4 knots; 2.1 m/s)
Visibility: 10 or more miles (16+ km)
Ceiling: at least 12,000 feet AGL
Clouds: sky clear below 12,000 feet AGL
Weather: automated observation with no human augmentation;
there may or may not be significant weather present at this time

METAR text: KMNH 231652Z AUTO 28006KT 10SM CLR 16/M04 A3026 RMK AO2
Conditions at: KMNH (MONUMENT/ELBERT , CO, US) observed 1652 UTC 23 October 2014
Temperature: 16.0°C (61°F)
Dewpoint: -4.0°C (25°F) [RH = 25%]
Pressure (altimeter): 30.26 inches Hg (1024.8 mb)
Winds: from the W (280 degrees) at 7 MPH (6 knots; 3.1 m/s)
Visibility: 10 or more miles (16+ km)
Ceiling: at least 12,000 feet AGL
Clouds: sky clear below 12,000 feet AGL
Weather: automated observation with no human augmentation;
there may or may not be significant weather present at this time

METAR text: KMNH 231632Z AUTO 26004KT 10SM CLR 16/M03 A3026 RMK AO2
Conditions at: KMNH (MONUMENT/ELBERT , CO, US) observed 1632 UTC 23 October 2014
Temperature: 16.0°C (61°F)
Dewpoint: -3.0°C (27°F) [RH = 27%]
Pressure (altimeter): 30.26 inches Hg (1024.8 mb)
Winds: from the W (260 degrees) at 5 MPH (4 knots; 2.1 m/s)
Visibility: 10 or more miles (16+ km)
Ceiling: at least 12,000 feet AGL
Clouds: sky clear below 12,000 feet AGL
Weather: automated observation with no human augmentation;
there may or may not be significant weather present at this time

METAR text: KMNH 231611Z AUTO 25007KT 10SM CLR 15/M02 A3026 RMK AO2
Conditions at: KMNH (MONUMENT/ELBERT , CO, US) observed 1611 UTC 23 October 2014
Temperature: 15.0°C (59°F)
Dewpoint: -2.0°C (28°F) [RH = 31%]
Pressure (altimeter): 30.26 inches Hg (1024.8 mb)
Winds: from the WSW (250 degrees) at 8 MPH (7 knots; 3.6 m/s)
Visibility: 10 or more miles (16+ km)
Ceiling: at least 12,000 feet AGL
Clouds: sky clear below 12,000 feet AGL
Weather: automated observation with no human augmentation;
there may or may not be significant weather present at this time

METAR text: KMNH 231552Z AUTO 24006KT 10SM CLR 14/M02 A3026 RMK AO2
Conditions at: KMNH (MONUMENT/ELBERT , CO, US) observed 1552 UTC 23 October 2014
Temperature: 14.0°C (57°F)
Dewpoint: -2.0°C (28°F) [RH = 33%]
Pressure (altimeter): 30.26 inches Hg (1024.8 mb)
Winds: from the WSW (240 degrees) at 7 MPH (6 knots; 3.1 m/s)
Visibility: 10 or more miles (16+ km)
Ceiling: at least 12,000 feet AGL
Clouds: sky clear below 12,000 feet AGL
Weather: automated observation with no human augmentation;
there may or may not be significant weather present at this time

METAR text: KMNH 231532Z AUTO 22004KT 10SM CLR 13/M01 A3026 RMK AO2
Conditions at: KMNH (MONUMENT/ELBERT , CO, US) observed 1532 UTC 23 October 2014
Temperature: 13.0°C (55°F)
Dewpoint: -1.0°C (30°F) [RH = 38%]
Pressure (altimeter): 30.26 inches Hg (1024.8 mb)
Winds: from the SW (220 degrees) at 5 MPH (4 knots; 2.1 m/s)
Visibility: 10 or more miles (16+ km)
Ceiling: at least 12,000 feet AGL
Clouds: sky clear below 12,000 feet AGL
Weather: automated observation with no human augmentation;
there may or may not be significant weather present at this time

METAR text: KMNH 231512Z AUTO 22004KT 10SM CLR 12/00 A3026 RMK AO2
Conditions at: KMNH (MONUMENT/ELBERT , CO, US) observed 1512 UTC 23 October 2014
Temperature: 12.0°C (54°F)
Dewpoint: 0.0°C (32°F) [RH = 44%]
Pressure (altimeter): 30.26 inches Hg (1024.8 mb)
Winds: from the SW (220 degrees) at 5 MPH (4 knots; 2.1 m/s)
Visibility: 10 or more miles (16+ km)
Ceiling: at least 12,000 feet AGL
Clouds: sky clear below 12,000 feet AGL
Weather: automated observation with no human augmentation;
there may or may not be significant weather present at this time

METAR text: KMNH 231452Z AUTO 21005KT 10SM CLR 10/00 A3026 RMK AO2
Conditions at: KMNH (MONUMENT/ELBERT , CO, US) observed 1452 UTC 23 October 2014
Temperature: 10.0°C (50°F)
Dewpoint: 0.0°C (32°F) [RH = 50%]
Pressure (altimeter): 30.26 inches Hg (1024.8 mb)
Winds: from the SSW (210 degrees) at 6 MPH (5 knots; 2.6 m/s)
Visibility: 10 or more miles (16+ km)
Ceiling: at least 12,000 feet AGL
Clouds: sky clear below 12,000 feet AGL
Weather: automated observation with no human augmentation;
there may or may not be significant weather present at this time

METAR text: KMNH 231432Z AUTO 21005KT 10SM CLR 08/00 A3025 RMK AO2
Conditions at: KMNH (MONUMENT/ELBERT , CO, US) observed 1432 UTC 23 October 2014
Temperature: 8.0°C (46°F)
Dewpoint: 0.0°C (32°F) [RH = 57%]
Pressure (altimeter): 30.25 inches Hg (1024.5 mb)
Winds: from the SSW (210 degrees) at 6 MPH (5 knots; 2.6 m/s)
Visibility: 10 or more miles (16+ km)
Ceiling: at least 12,000 feet AGL
Clouds: sky clear below 12,000 feet AGL
Weather: automated observation with no human augmentation;
there may or may not be significant weather present at this time

METAR text: KMNH 231411Z AUTO 20005KT 10SM CLR 05/00 A3025 RMK AO2
Conditions at: KMNH (MONUMENT/ELBERT , CO, US) observed 1411 UTC 23 October 2014
Temperature: 5.0°C (41°F)
Dewpoint: 0.0°C (32°F) [RH = 70%]
Pressure (altimeter): 30.25 inches Hg (1024.5 mb)
Winds: from the SSW (200 degrees) at 6 MPH (5 knots; 2.6 m/s)
Visibility: 10 or more miles (16+ km)
Ceiling: at least 12,000 feet AGL
Clouds: sky clear below 12,000 feet AGL
Weather: automated observation with no human augmentation;
there may or may not be significant weather present at this time

METAR text: KMNH 231351Z AUTO 21006KT 10SM CLR 03/M01 A3025 RMK AO2
Conditions at: KMNH (MONUMENT/ELBERT , CO, US) observed 1351 UTC 23 October 2014
Temperature: 3.0°C (37°F)
Dewpoint: -1.0°C (30°F) [RH = 75%]
Pressure (altimeter): 30.25 inches Hg (1024.5 mb)
Winds: from the SSW (210 degrees) at 7 MPH (6 knots; 3.1 m/s)
Visibility: 10 or more miles (16+ km)
Ceiling: at least 12,000 feet AGL
Clouds: sky clear below 12,000 feet AGL
Weather: automated observation with no human augmentation;
there may or may not be significant weather present at this time

METAR text: KMNH 231332Z AUTO 21007KT 10SM CLR 02/M02 A3024 RMK AO2
Conditions at: KMNH (MONUMENT/ELBERT , CO, US) observed 1332 UTC 23 October 2014
Temperature: 2.0°C (36°F)
Dewpoint: -2.0°C (28°F) [RH = 75%]
Pressure (altimeter): 30.24 inches Hg (1024.1 mb)
Winds: from the SSW (210 degrees) at 8 MPH (7 knots; 3.6 m/s)
Visibility: 10 or more miles (16+ km)
Ceiling: at least 12,000 feet AGL
Clouds: sky clear below 12,000 feet AGL
Weather: automated observation with no human augmentation;
there may or may not be significant weather present at this time

METAR text: KMNH 231311Z AUTO 22009KT 10SM CLR 03/M02 A3024 RMK AO2
Conditions at: KMNH (MONUMENT/ELBERT , CO, US) observed 1311 UTC 23 October 2014
Temperature: 3.0°C (37°F)
Dewpoint: -2.0°C (28°F) [RH = 70%]
Pressure (altimeter): 30.24 inches Hg (1024.1 mb)
Winds: from the SW (220 degrees) at 10 MPH (9 knots; 4.7 m/s)
Visibility: 10 or more miles (16+ km)
Ceiling: at least 12,000 feet AGL
Clouds: sky clear below 12,000 feet AGL
Weather: automated observation with no human augmentation;
there may or may not be significant weather present at this time

METAR text: KMNH 231251Z AUTO 23006KT 10SM CLR 02/M01 A3023 RMK AO2
Conditions at: KMNH (MONUMENT/ELBERT , CO, US) observed 1251 UTC 23 October 2014
Temperature: 2.0°C (36°F)
Dewpoint: -1.0°C (30°F) [RH = 80%]
Pressure (altimeter): 30.23 inches Hg (1023.8 mb)
Winds: from the SW (230 degrees) at 7 MPH (6 knots; 3.1 m/s)
Visibility: 10 or more miles (16+ km)
Ceiling: at least 12,000 feet AGL
Clouds: sky clear below 12,000 feet AGL
Weather: automated observation with no human augmentation;
there may or may not be significant weather present at this time

METAR text: KMNH 231232Z AUTO 21008KT 10SM CLR 03/M02 A3023 RMK AO2
Conditions at: KMNH (MONUMENT/ELBERT , CO, US) observed 1232 UTC 23 October 2014
Temperature: 3.0°C (37°F)
Dewpoint: -2.0°C (28°F) [RH = 70%]
Pressure (altimeter): 30.23 inches Hg (1023.8 mb)
Winds: from the SSW (210 degrees) at 9 MPH (8 knots; 4.2 m/s)
Visibility: 10 or more miles (16+ km)
Ceiling: at least 12,000 feet AGL
Clouds: sky clear below 12,000 feet AGL
Weather: automated observation with no human augmentation;
there may or may not be significant weather present at this time

METAR text: KMNH 231212Z AUTO 25008KT 10SM CLR 03/M01 A3023 RMK AO2
Conditions at: KMNH (MONUMENT/ELBERT , CO, US) observed 1212 UTC 23 October 2014
Temperature: 3.0°C (37°F)
Dewpoint: -1.0°C (30°F) [RH = 75%]
Pressure (altimeter): 30.23 inches Hg (1023.8 mb)
Winds: from the WSW (250 degrees) at 9 MPH (8 knots; 4.2 m/s)
Visibility: 10 or more miles (16+ km)
Ceiling: at least 12,000 feet AGL
Clouds: sky clear below 12,000 feet AGL
Weather: automated observation with no human augmentation;
there may or may not be significant weather present at this time

METAR text: KMNH 231152Z AUTO 24005KT 10SM CLR 03/M01 A3021 RMK AO2
Conditions at: KMNH (MONUMENT/ELBERT , CO, US) observed 1152 UTC 23 October 2014
Temperature: 3.0°C (37°F)
Dewpoint: -1.0°C (30°F) [RH = 75%]
Pressure (altimeter): 30.21 inches Hg (1023.1 mb)
Winds: from the WSW (240 degrees) at 6 MPH (5 knots; 2.6 m/s)
Visibility: 10 or more miles (16+ km)
Ceiling: at least 12,000 feet AGL
Clouds: sky clear below 12,000 feet AGL
Weather: automated observation with no human augmentation;
there may or may not be significant weather present at this time

METAR text: KMNH 231132Z AUTO 23006KT 10SM CLR 04/M01 A3021 RMK AO2
Conditions at: KMNH (MONUMENT/ELBERT , CO, US) observed 1132 UTC 23 October 2014
Temperature: 4.0°C (39°F)
Dewpoint: -1.0°C (30°F) [RH = 70%]
Pressure (altimeter): 30.21 inches Hg (1023.1 mb)
Winds: from the SW (230 degrees) at 7 MPH (6 knots; 3.1 m/s)
Visibility: 10 or more miles (16+ km)
Ceiling: at least 12,000 feet AGL
Clouds: sky clear below 12,000 feet AGL
Weather: automated observation with no human augmentation;
there may or may not be significant weather present at this time

METAR text: KMNH 231112Z AUTO 23005KT 10SM CLR 02/00 A3021 RMK AO2
Conditions at: KMNH (MONUMENT/ELBERT , CO, US) observed 1112 UTC 23 October 2014
Temperature: 2.0°C (36°F)
Dewpoint: 0.0°C (32°F) [RH = 87%]
Pressure (altimeter): 30.21 inches Hg (1023.1 mb)
Winds: from the SW (230 degrees) at 6 MPH (5 knots; 2.6 m/s)
Visibility: 10 or more miles (16+ km)
Ceiling: at least 12,000 feet AGL
Clouds: sky clear below 12,000 feet AGL
Weather: automated observation with no human augmentation;
there may or may not be significant weather present at this time

METAR text: KMNH 231052Z AUTO 23008KT 10SM CLR 03/00 A3021 RMK AO2
Conditions at: KMNH (MONUMENT/ELBERT , CO, US) observed 1052 UTC 23 October 2014
Temperature: 3.0°C (37°F)
Dewpoint: 0.0°C (32°F) [RH = 81%]
Pressure (altimeter): 30.21 inches Hg (1023.1 mb)
Winds: from the SW (230 degrees) at 9 MPH (8 knots; 4.2 m/s)
Visibility: 10 or more miles (16+ km)
Ceiling: at least 12,000 feet AGL
Clouds: sky clear below 12,000 feet AGL
Weather: automated observation with no human augmentation;
there may or may not be significant weather present at this time

METAR text: KMNH 231032Z AUTO 21006KT 10SM CLR 05/00 A3021 RMK AO2
Conditions at: KMNH (MONUMENT/ELBERT , CO, US) observed 1032 UTC 23 October 2014
Temperature: 5.0°C (41°F)
Dewpoint: 0.0°C (32°F) [RH = 70%]
Pressure (altimeter): 30.21 inches Hg (1023.1 mb)
Winds: from the SSW (210 degrees) at 7 MPH (6 knots; 3.1 m/s)
Visibility: 10 or more miles (16+ km)
Ceiling: at least 12,000 feet AGL
Clouds: sky clear below 12,000 feet AGL
Weather: automated observation with no human augmentation;
there may or may not be significant weather present at this time

METAR text: KMNH 231012Z AUTO 22008KT 10SM CLR 06/00 A3021 RMK AO2
Conditions at: KMNH (MONUMENT/ELBERT , CO, US) observed 1012 UTC 23 October 2014
Temperature: 6.0°C (43°F)
Dewpoint: 0.0°C (32°F) [RH = 65%]
Pressure (altimeter): 30.21 inches Hg (1023.1 mb)
Winds: from the SW (220 degrees) at 9 MPH (8 knots; 4.2 m/s)
Visibility: 10 or more miles (16+ km)
Ceiling: at least 12,000 feet AGL
Clouds: sky clear below 12,000 feet AGL
Weather: automated observation with no human augmentation;
there may or may not be significant weather present at this time

METAR text: KMNH 230952Z AUTO 21007KT 10SM CLR 05/01 A3021 RMK AO2
Conditions at: KMNH (MONUMENT/ELBERT , CO, US) observed 0952 UTC 23 October 2014
Temperature: 5.0°C (41°F)
Dewpoint: 1.0°C (34°F) [RH = 75%]
Pressure (altimeter): 30.21 inches Hg (1023.1 mb)
Winds: from the SSW (210 degrees) at 8 MPH (7 knots; 3.6 m/s)
Visibility: 10 or more miles (16+ km)
Ceiling: at least 12,000 feet AGL
Clouds: sky clear below 12,000 feet AGL
Weather: automated observation with no human augmentation;
there may or may not be significant weather present at this time

METAR text: KMNH 230932Z AUTO 21006KT 10SM CLR 04/01 A3022 RMK AO2
Conditions at: KMNH (MONUMENT/ELBERT , CO, US) observed 0932 UTC 23 October 2014
Temperature: 4.0°C (39°F)
Dewpoint: 1.0°C (34°F) [RH = 81%]
Pressure (altimeter): 30.22 inches Hg (1023.5 mb)
Winds: from the SSW (210 degrees) at 7 MPH (6 knots; 3.1 m/s)
Visibility: 10 or more miles (16+ km)
Ceiling: at least 12,000 feet AGL
Clouds: sky clear below 12,000 feet AGL
Weather: automated observation with no human augmentation;
there may or may not be significant weather present at this time

METAR text: KMNH 230912Z AUTO 21007KT 10SM CLR 05/02 A3022 RMK AO2
Conditions at: KMNH (MONUMENT/ELBERT , CO, US) observed 0912 UTC 23 October 2014
Temperature: 5.0°C (41°F)
Dewpoint: 2.0°C (36°F) [RH = 81%]
Pressure (altimeter): 30.22 inches Hg (1023.5 mb)
Winds: from the SSW (210 degrees) at 8 MPH (7 knots; 3.6 m/s)
Visibility: 10 or more miles (16+ km)
Ceiling: at least 12,000 feet AGL
Clouds: sky clear below 12,000 feet AGL
Weather: automated observation with no human augmentation;
there may or may not be significant weather present at this time

METAR text: KMNH 230852Z AUTO 22008KT 10SM CLR 05/02 A3021 RMK AO2
Conditions at: KMNH (MONUMENT/ELBERT , CO, US) observed 0852 UTC 23 October 2014
Temperature: 5.0°C (41°F)
Dewpoint: 2.0°C (36°F) [RH = 81%]
Pressure (altimeter): 30.21 inches Hg (1023.1 mb)
Winds: from the SW (220 degrees) at 9 MPH (8 knots; 4.2 m/s)
Visibility: 10 or more miles (16+ km)
Ceiling: at least 12,000 feet AGL
Clouds: sky clear below 12,000 feet AGL
Weather: automated observation with no human augmentation;
there may or may not be significant weather present at this time

METAR text: KMNH 230832Z AUTO 21008KT 10SM CLR 05/03 A3021 RMK AO2
Conditions at: KMNH (MONUMENT/ELBERT , CO, US) observed 0832 UTC 23 October 2014
Temperature: 5.0°C (41°F)
Dewpoint: 3.0°C (37°F) [RH = 87%]
Pressure (altimeter): 30.21 inches Hg (1023.1 mb)
Winds: from the SSW (210 degrees) at 9 MPH (8 knots; 4.2 m/s)
Visibility: 10 or more miles (16+ km)
Ceiling: at least 12,000 feet AGL
Clouds: sky clear below 12,000 feet AGL
Weather: automated observation with no human augmentation;
there may or may not be significant weather present at this time